Huvudsida
METAR-TAF:

METAR-TAF

Flygplatser :

Bahrains internationella flygplats

Bahrain, Bahrain

latitud: 26-16N, longitud: 050-39E, höjd: 2 m

Aktuellt väderrapport

Denna rapport gjordes för 19 minuter sedan, klockan 15:30 UTC
Vind 5 kt från nord/nordost, varierande mellan nord och ost/nordost
Temperatur 33°C
Fuktighet 26%
Tryck 1008 hPa
Sikt 10 km eller mer
Inga moln under 1 500 m eller inga cumulonimbus

METAR: OBBI 221530Z 02005KT 360V070 CAVOK 33/11 Q1008 NOSIG

Tid: 18:49 (15:49 UTC)

Väderprognos

Denna rapport gjordes för 4 timmar och 49 minuter sedan, klockan 11:00 UTC
Prognos gäller från 22 kl. 12 UTC till 23 kl. 18 UTC
Vind 10 kt från nord
Sikt 10 km eller mer
Inga moln under 1 500 m eller inga cumulonimbus
Blir
från 22 kl. 16 UTC till 22 kl. 18 UTC
Vind 5 kt varierande vindriktning
Blir
från 23 kl. 10 UTC till 23 kl. 12 UTC
Vind 10 kt från nord

TAF: OBBI 221100Z 2212/2318 01010KT CAVOK BECMG 2216/2218 VRB05KT BECMG 2310/2312 01010KT

Aktuella väderrapporter och prognoser från 4000 flygplatser (METAR- och TAF-rapporter).

De tillgängliga stationerna syns som gula och röda prickar på kartan.

För musen över prickarna för att se namnen på stationerna.

Klicka sedan för att få väderrapporter och prognoser.

För att ändra kartan: Klicka på de gröna knapparna med ett svart kors på för att zooma in; den gröna knappen med ett streck på för att zooma ut; eller på de gröna pilarna för angränsande kartor.


METAR-TAF: